Time;durP1;ratioP1;P1;durP2;ratioP2;P2;SDS_P1;SDS_P2;PMS_P1;PMS_P2;Temp;Humidity;BMP_temperature;BMP_pressure;BME280_temperature;BME280_humidity;BME280_pressure;Samples;Min_cycle;Max_cycle;Signal;HPM_P1;HPM_P2
2023/02/16 00:00:49;;;;;;;27.85;11.50;;;;;;;14.92;39.85;102243.94;5030738;28;20034;-62
2023/02/16 00:03:17;;;;;;;23.52;11.05;;;;;;;14.90;38.57;102243.22;5030682;28;20028;-61
2023/02/16 00:05:43;;;;;;;27.90;10.90;;;;;;;14.88;40.21;102247.88;5031211;28;20025;-61
2023/02/16 00:08:08;;;;;;;26.85;11.43;;;;;;;14.89;38.44;102249.59;5014135;28;20510;-63
2023/02/16 00:10:36;;;;;;;25.08;11.30;;;;;;;14.87;38.70;102246.16;5013900;28;20034;-61
2023/02/16 00:15:46;;;;;;;28.05;11.25;;;;;;;14.79;39.60;102243.22;5015709;28;20033;-62
2023/02/16 00:18:21;;;;;;;25.63;10.60;;;;;;;14.72;39.28;102245.53;5031628;28;20026;-61
2023/02/16 00:20:49;;;;;;;29.02;11.57;;;;;;;14.74;39.04;102246.25;5014691;28;20100;-62
2023/02/16 00:23:15;;;;;;;24.67;11.15;;;;;;;14.73;40.02;102249.09;5014086;28;20509;-61
2023/02/16 00:25:40;;;;;;;27.65;10.90;;;;;;;14.77;40.38;102246.03;5013725;28;20053;-62
2023/02/16 00:28:17;;;;;;;27.95;11.77;;;;;;;14.75;39.32;102245.28;5013920;28;20033;-61
2023/02/16 00:30:42;;;;;;;35.45;11.65;;;;;;;14.76;40.32;102238.06;4995771;28;20029;-61
2023/02/16 00:33:14;;;;;;;27.88;10.90;;;;;;;14.76;40.22;102238.94;5014078;28;20044;-62
2023/02/16 00:35:39;;;;;;;22.58;11.20;;;;;;;14.75;39.12;102233.63;5027764;28;20426;-63
2023/02/16 00:38:04;;;;;;;24.83;11.38;;;;;;;14.73;40.45;102232.91;5031490;28;20029;-61
2023/02/16 00:40:30;;;;;;;24.10;10.88;;;;;;;14.70;39.13;102238.53;5013565;28;20057;-62
2023/02/16 00:42:56;;;;;;;22.38;11.27;;;;;;;14.69;40.07;102231.41;5013565;28;20040;-62
2023/02/16 00:45:23;;;;;;;25.48;11.25;;;;;;;14.68;39.46;102221.63;5014172;28;20037;-62
2023/02/16 00:47:50;;;;;;;25.75;10.50;;;;;;;14.65;39.51;102219.19;5014883;28;20088;-62
2023/02/16 00:50:22;;;;;;;29.27;10.93;;;;;;;14.69;40.01;102226.03;5041086;28;20040;-61
2023/02/16 00:52:48;;;;;;;28.75;11.02;;;;;;;14.65;40.56;102220.03;5014939;28;20486;-62
2023/02/16 00:55:16;;;;;;;26.00;10.82;;;;;;;14.64;39.04;102218.31;5017414;28;20033;-61
2023/02/16 00:57:47;;;;;;;28.83;12.18;;;;;;;14.61;40.28;102218.56;5033644;28;20035;-62
2023/02/16 01:00:13;;;;;;;26.45;11.60;;;;;;;14.60;39.05;102216.81;5017270;28;20025;-62
2023/02/16 01:02:39;;;;;;;26.20;11.38;;;;;;;14.56;40.62;102209.97;5052092;28;20032;-61
2023/02/16 01:05:05;;;;;;;25.05;11.45;;;;;;;14.55;38.77;102209.09;5017196;28;20037;-62
2023/02/16 01:13:03;;;;;;;23.30;11.02;;;;;;;14.56;39.90;102227.00;5036296;28;20567;-62
2023/02/16 01:15:29;;;;;;;22.63;11.75;;;;;;;14.56;39.08;102223.44;5051404;28;20037;-62
2023/02/16 01:17:54;;;;;;;26.98;10.90;;;;;;;14.57;40.15;102223.31;5034706;28;20040;-61
2023/02/16 01:20:22;;;;;;;24.20;10.50;;;;;;;14.52;39.15;102214.75;5017988;28;20128;-62
2023/02/16 01:22:48;;;;;;;25.75;10.82;;;;;;;14.50;39.41;102211.31;5018073;28;20087;-62
2023/02/16 01:25:14;;;;;;;25.00;9.52;;;;;;;14.47;39.79;102210.69;5018335;28;20048;-62
2023/02/16 01:27:40;;;;;;;25.67;10.43;;;;;;;14.44;40.26;102209.09;5051300;28;20029;-63
2023/02/16 01:30:30;;;;;;;27.25;11.70;;;;;;;14.46;39.58;102220.59;5034494;28;20484;-62
2023/02/16 01:32:55;;;;;;;25.45;10.63;;;;;;;14.42;39.89;102221.84;5052397;28;20029;-62
2023/02/16 01:35:23;;;;;;;22.50;10.75;;;;;;;14.45;39.96;102218.03;5034859;28;20082;-62
2023/02/16 01:37:49;;;;;;;25.88;11.75;;;;;;;14.46;40.34;102231.38;5017753;28;20064;-61
2023/02/16 01:40:25;;;;;;;24.52;10.65;;;;;;;14.47;39.46;102216.94;5034315;28;20033;-61
2023/02/16 01:42:54;;;;;;;25.50;11.05;;;;;;;14.46;39.14;102220.59;5017839;28;20033;-61
2023/02/16 01:45:28;;;;;;;21.60;10.68;;;;;;;14.45;39.94;102224.31;5017723;28;20036;-61
2023/02/16 01:47:55;;;;;;;25.77;10.65;;;;;;;14.41;39.93;102225.50;5034517;28;20021;-63
2023/02/16 01:50:25;;;;;;;24.33;10.32;;;;;;;14.42;39.58;102223.69;5034092;28;20049;-61
2023/02/16 01:53:01;;;;;;;26.80;11.27;;;;;;;14.40;39.83;102210.31;5052649;28;20032;-62
2023/02/16 01:55:30;;;;;;;25.88;12.50;;;;;;;14.39;40.39;102203.22;5021343;28;20550;-62
2023/02/16 01:58:01;;;;;;;29.05;11.15;;;;;;;14.37;38.89;102209.69;5037997;28;20048;-62
2023/02/16 02:00:49;;;;;;;26.30;10.80;;;;;;;14.31;40.11;102205.63;5037782;28;20033;-61
2023/02/16 02:06:32;;;;;;;25.33;9.75;;;;;;;14.21;39.13;102201.91;5040555;28;20036;-61
2023/02/16 02:09:02;;;;;;;24.33;10.40;;;;;;;14.19;38.97;102203.84;5021106;28;20028;-61
2023/02/16 02:11:35;;;;;;;24.25;11.95;;;;;;;14.16;40.07;102206.78;5021725;28;20429;-61
2023/02/16 02:14:10;;;;;;;;;;;;;;;14.12;40.30;102210.72;5038042;28;20041;-61
2023/02/16 02:16:36;;;;;;;25.50;11.77;;;;;;;14.10;39.17;102203.72;5020819;28;19919;-62
2023/02/16 02:19:02;;;;;;;33.90;11.45;;;;;;;14.06;39.63;102195.00;5037511;28;20029;-61
2023/02/16 02:25:18;;;;;;;23.17;10.57;;;;;;;13.93;40.06;102180.78;5055074;28;20048;-61
2023/02/16 02:27:52;;;;;;;28.92;11.20;;;;;;;13.85;39.61;102167.00;5037210;28;20519;-61
2023/02/16 02:30:26;;;;;;;27.20;10.85;;;;;;;13.82;39.38;102161.84;5021186;28;20025;-61
2023/02/16 02:33:28;;;;;;;27.65;11.65;;;;;;;13.76;40.21;102159.66;5037492;28;20029;-61
2023/02/16 02:35:56;;;;;;;20.80;10.85;;;;;;;13.71;39.69;102153.75;5054901;28;20048;-60
2023/02/16 02:38:24;;;;;;;25.55;11.80;;;;;;;13.68;39.60;102156.69;5055136;28;20025;-61
2023/02/16 02:41:02;;;;;;;23.40;10.18;;;;;;;13.67;39.62;102149.59;5036811;28;20037;-61
2023/02/16 02:43:35;;;;;;;22.35;10.82;;;;;;;13.65;40.72;102160.44;5054806;28;20064;-61
2023/02/16 02:46:18;;;;;;;23.58;10.60;;;;;;;13.68;40.78;102149.44;5036936;28;20528;-61
2023/02/16 02:48:43;;;;;;;23.95;11.45;;;;;;;13.70;40.34;102142.13;5036809;28;20091;-62
2023/02/16 02:51:28;;;;;;;24.55;10.25;;;;;;;13.74;40.69;102145.44;5054527;28;20461;-61
2023/02/16 03:00:39;;;;;;;21.27;10.10;;;;;;;13.79;40.41;102143.28;5039375;28;20040;-61
2023/02/16 03:02:14;;;;;;;26.02;11.23;;;;;;;13.88;40.58;102142.53;5039533;28;20048;-61
2023/02/16 03:04:39;;;;;;;27.55;12.20;;;;;;;13.89;40.98;102149.66;5055465;28;20044;-62
2023/02/16 03:07:06;;;;;;;26.08;11.30;;;;;;;13.92;40.94;102154.81;5037753;28;20033;-62
2023/02/16 03:09:31;;;;;;;23.52;10.70;;;;;;;13.97;40.48;102147.22;5039084;28;20485;-61
2023/02/16 03:14:46;;;;;;;25.35;10.63;;;;;;;14.00;41.20;102136.22;5039708;28;20133;-61
2023/02/16 03:31:05;;;;;;;27.60;10.48;;;;;;;13.94;40.04;102118.69;5038926;28;20056;-62
2023/02/16 03:33:31;;;;;;;24.58;10.40;;;;;;;13.98;40.07;102122.88;5019766;28;20083;-63
2023/02/16 03:35:57;;;;;;;24.23;10.98;;;;;;;13.95;41.00;102116.88;5035878;28;20029;-63
2023/02/16 03:38:22;;;;;;;23.63;11.18;;;;;;;13.95;41.05;102120.41;5036145;28;20029;-63
2023/02/16 03:40:49;;;;;;;20.77;10.23;;;;;;;13.95;41.19;102122.25;5036087;28;20055;-63
2023/02/16 03:43:14;;;;;;;25.05;10.93;;;;;;;13.95;41.05;102124.94;5019328;28;20076;-63
2023/02/16 03:45:41;;;;;;;22.30;10.93;;;;;;;13.94;40.12;102120.53;5035572;28;20025;-62
2023/02/16 03:48:07;;;;;;;26.05;10.50;;;;;;;13.94;41.34;102120.53;5019205;28;20041;-63
2023/02/16 03:50:32;;;;;;;26.27;10.93;;;;;;;13.93;39.90;102116.13;5019816;28;20040;-62
2023/02/16 03:53:06;;;;;;;24.55;11.20;;;;;;;13.92;41.06;102106.31;5035776;28;20064;-63
2023/02/16 03:55:37;;;;;;;23.75;10.52;;;;;;;13.93;40.44;102113.44;5053501;28;20033;-62
2023/02/16 03:58:04;;;;;;;33.03;12.48;;;;;;;13.94;40.95;102115.13;5035484;28;20501;-64
2023/02/16 04:00:30;;;;;;;25.67;10.73;;;;;;;13.95;40.85;102111.47;5035503;28;20068;-63
2023/02/16 04:02:55;;;;;;;26.00;11.32;;;;;;;13.94;41.25;102115.13;5036009;28;20514;-62
2023/02/16 04:05:20;;;;;;;25.80;10.85;;;;;;;13.92;40.46;102111.72;5019398;28;20436;-63
2023/02/16 04:07:46;;;;;;;26.20;10.88;;;;;;;13.93;41.47;102108.88;5035431;28;20030;-62
2023/02/16 04:10:11;;;;;;;23.77;10.23;;;;;;;13.95;40.09;102116.88;5052144;28;20036;-63
2023/02/16 04:12:37;;;;;;;24.85;9.77;;;;;;;13.94;40.43;102116.00;5053212;28;20109;-63
2023/02/16 04:15:07;;;;;;;30.33;12.18;;;;;;;13.94;40.23;102117.81;5034798;28;20033;-63
2023/02/16 04:17:32;;;;;;;28.05;10.77;;;;;;;13.93;40.06;102118.81;5035613;28;20120;-63
2023/02/16 04:19:58;;;;;;;22.98;9.32;;;;;;;13.95;41.29;102122.25;5002581;28;20045;-63
2023/02/16 04:22:23;;;;;;;24.00;10.20;;;;;;;13.93;41.44;102118.81;5052923;28;20055;-62
2023/02/16 04:24:49;;;;;;;23.77;10.32;;;;;;;13.93;40.60;102119.66;5052863;28;20115;-63
2023/02/16 04:27:14;;;;;;;25.15;11.05;;;;;;;13.94;40.86;102116.00;5018702;28;20457;-63
2023/02/16 04:29:40;;;;;;;21.80;10.02;;;;;;;13.92;40.41;102115.25;5035264;28;20021;-62
2023/02/16 04:32:05;;;;;;;24.77;9.23;;;;;;;13.90;40.67;102108.28;5035139;28;20615;-63
2023/02/16 04:34:30;;;;;;;29.52;10.75;;;;;;;13.92;41.51;102111.72;5052647;28;20025;-63
2023/02/16 04:36:56;;;;;;;21.15;9.90;;;;;;;13.90;40.52;102109.13;5035083;28;20557;-63
2023/02/16 04:39:21;;;;;;;23.83;10.40;;;;;;;13.92;40.36;102111.72;5052698;28;20029;-62
2023/02/16 04:41:46;;;;;;;27.13;10.70;;;;;;;13.88;41.34;102104.81;5002397;28;20024;-62
2023/02/16 04:44:12;;;;;;;20.67;10.10;;;;;;;13.93;41.16;102110.75;5018464;28;20040;-62
2023/02/16 04:46:37;;;;;;;20.50;10.60;;;;;;;13.90;41.09;102102.91;5034845;28;20032;-63
2023/02/16 04:49:03;;;;;;;22.23;10.05;;;;;;;13.94;40.43;102117.81;5052437;28;20513;-62
2023/02/16 04:51:28;;;;;;;20.30;10.45;;;;;;;13.95;41.26;102127.63;5034836;28;20036;-62
2023/02/16 04:53:53;;;;;;;21.85;10.13;;;;;;;13.97;41.98;102125.66;5035254;28;20107;-64
2023/02/16 04:56:19;;;;;;;25.27;10.38;;;;;;;13.98;40.76;102130.97;5052534;28;20033;-63
2023/02/16 04:58:44;;;;;;;21.80;10.00;;;;;;;14.02;41.63;102129.72;5034779;28;20033;-63
2023/02/16 05:01:17;;;;;;;25.98;11.95;;;;;;;14.04;40.49;102132.31;5034737;28;20044;-63
2023/02/16 05:03:43;;;;;;;29.67;12.05;;;;;;;14.02;41.58;102129.72;5052409;28;20029;-63
2023/02/16 05:06:08;;;;;;;26.98;11.30;;;;;;;14.02;41.79;102124.34;5018227;28;20103;-63
2023/02/16 05:08:33;;;;;;;32.47;12.23;;;;;;;13.99;40.88;102118.31;5035129;28;20021;-63
2023/02/16 05:16:27;;;;;;;23.60;10.25;;;;;;;13.97;40.29;102115.75;5003727;28;20041;-63
2023/02/16 05:18:52;;;;;;;23.30;10.30;;;;;;;13.96;40.51;102119.41;5014704;28;20034;-62
2023/02/16 05:21:30;;;;;;;51.67;18.15;;;;;;;13.96;41.22;102114.03;5014794;28;20037;-62
2023/02/16 05:23:58;;;;;;;63.92;21.15;;;;;;;13.96;41.52;102119.41;5032996;28;20029;-63
2023/02/16 05:26:24;;;;;;;27.02;11.50;;;;;;;13.97;41.52;102115.75;5016311;28;20457;-62
2023/02/16 05:28:50;;;;;;;34.72;12.90;;;;;;;13.99;41.23;102115.63;5018564;28;20121;-62
2023/02/16 05:31:15;;;;;;;51.10;18.60;;;;;;;13.98;41.57;102113.94;5034883;28;20033;-63
2023/02/16 05:33:40;;;;;;;28.50;11.73;;;;;;;14.02;40.67;102107.31;5002198;28;20029;-63
2023/02/16 05:36:06;;;;;;;36.60;13.80;;;;;;;14.05;40.99;102111.59;5018399;28;20029;-62
2023/02/16 05:38:31;;;;;;;28.02;11.02;;;;;;;14.06;41.45;102119.56;5019082;28;20029;-62
2023/02/16 05:40:58;;;;;;;82.53;26.27;;;;;;;14.08;41.69;102123.00;5018154;28;20037;-62
2023/02/16 05:43:23;;;;;;;126.82;36.70;;;;;;;14.13;42.11;102131.56;5002037;28;20101;-62
2023/02/16 05:45:48;;;;;;;176.27;47.10;;;;;;;14.17;40.74;102129.50;5018475;28;20044;-63
2023/02/16 05:48:14;;;;;;;44.78;16.95;;;;;;;14.19;40.71;102124.84;5018161;28;20093;-63
2023/02/16 05:50:39;;;;;;;61.13;19.05;;;;;;;14.20;41.41;102121.19;5018454;28;20496;-62
2023/02/16 05:53:05;;;;;;;97.00;30.85;;;;;;;14.22;41.81;102112.00;5018259;28;20034;-63
2023/02/16 05:55:30;;;;;;;27.17;13.23;;;;;;;14.20;41.36;102113.97;5018126;28;20030;-62
2023/02/16 05:57:55;;;;;;;20.55;10.35;;;;;;;14.22;40.65;102112.00;5018016;28;20041;-62
2023/02/16 06:00:21;;;;;;;24.52;10.10;;;;;;;14.22;40.69;102098.53;5035776;28;20033;-62
2023/02/16 06:02:46;;;;;;;19.88;9.30;;;;;;;14.21;40.41;102096.78;5018563;28;20448;-62
2023/02/16 06:05:11;;;;;;;20.80;10.10;;;;;;;14.22;41.11;102098.53;5001500;28;20057;-62
2023/02/16 06:07:37;;;;;;;26.52;11.00;;;;;;;14.20;41.83;102100.47;5017979;28;20037;-63
2023/02/16 06:10:03;;;;;;;21.10;9.90;;;;;;;14.19;41.43;102093.38;5017926;28;20519;-63
2023/02/16 06:12:30;;;;;;;20.38;10.77;;;;;;;14.22;42.03;102098.53;5001560;28;20034;-62
2023/02/16 06:14:56;;;;;;;20.85;9.43;;;;;;;14.24;42.33;102093.84;5018008;28;20029;-64
2023/02/16 06:17:21;;;;;;;24.73;10.75;;;;;;;14.26;42.32;102097.31;5017962;28;20080;-63
2023/02/16 06:19:47;;;;;;;25.95;10.88;;;;;;;14.30;40.87;102098.75;5034214;28;20128;-63
2023/02/16 06:22:12;;;;;;;21.33;10.10;;;;;;;14.32;42.16;102099.53;5035306;28;20040;-63
2023/02/16 06:24:37;;;;;;;23.05;9.57;;;;;;;14.33;42.00;102101.25;5017590;28;20120;-62
2023/02/16 06:27:03;;;;;;;16.98;8.77;;;;;;;14.36;41.63;102101.00;5017301;28;20021;-63
2023/02/16 06:29:28;;;;;;;20.60;9.85;;;;;;;14.38;40.78;102101.72;5017765;28;20028;-62
2023/02/16 06:31:54;;;;;;;19.58;8.70;;;;;;;14.38;41.08;102096.34;5017595;28;20429;-62
2023/02/16 06:34:19;;;;;;;20.88;9.82;;;;;;;14.36;42.03;102100.16;5017418;28;20033;-63
2023/02/16 06:36:45;;;;;;;21.17;10.43;;;;;;;14.37;40.80;102116.22;5001022;28;20076;-63
2023/02/16 06:39:10;;;;;;;24.58;9.68;;;;;;;14.40;42.35;102107.03;5016583;28;20026;-62
2023/02/16 06:41:41;;;;;;;19.23;9.35;;;;;;;14.41;42.19;102101.50;5035309;28;20033;-62
2023/02/16 06:44:12;;;;;;;19.63;9.93;;;;;;;14.43;41.13;102101.38;5002536;28;20068;-62
2023/02/16 06:46:39;;;;;;;18.17;8.88;;;;;;;14.45;42.08;102116.47;5001006;28;20040;-63
2023/02/16 06:49:05;;;;;;;24.38;9.25;;;;;;;14.49;41.93;102090.94;5000881;28;20099;-62
2023/02/16 06:51:30;;;;;;;21.73;9.27;;;;;;;14.52;40.81;102101.50;5000837;28;20041;-62
2023/02/16 06:53:56;;;;;;;21.95;9.80;;;;;;;14.53;42.40;102092.44;5016963;28;20033;-62
2023/02/16 06:56:22;;;;;;;27.65;9.60;;;;;;;14.57;42.09;102104.66;5001031;28;20025;-62
2023/02/16 06:58:48;;;;;;;23.92;9.75;;;;;;;14.61;41.73;102104.41;5016763;28;20029;-62
2023/02/16 07:01:13;;;;;;;24.88;10.20;;;;;;;14.64;40.98;102109.56;5016985;28;20382;-62
2023/02/16 07:03:38;;;;;;;22.67;9.57;;;;;;;14.68;41.93;102106.53;5000622;28;20112;-62
2023/02/16 07:06:04;;;;;;;25.88;10.25;;;;;;;14.72;41.95;102101.72;5016976;28;20033;-62
2023/02/16 07:08:30;;;;;;;20.55;9.77;;;;;;;14.74;41.00;102099.78;5000714;28;20053;-62
2023/02/16 07:10:55;;;;;;;23.13;10.18;;;;;;;14.75;41.35;102101.47;4984272;28;20115;-63
2023/02/16 07:13:21;;;;;;;25.85;11.35;;;;;;;14.76;41.34;102104.06;5016819;28;20034;-62
2023/02/16 07:15:46;;;;;;;22.30;10.68;;;;;;;14.81;40.99;102112.63;5016702;28;20116;-62
2023/02/16 07:18:11;;;;;;;24.38;11.70;;;;;;;14.86;41.27;102131.13;5016617;28;20045;-62
2023/02/16 07:20:37;;;;;;;25.58;10.10;;;;;;;14.89;41.87;102128.19;5000530;28;20029;-62
2023/02/16 07:23:03;;;;;;;22.67;10.68;;;;;;;14.91;41.63;102128.91;5016410;28;20041;-62
2023/02/16 07:25:28;;;;;;;22.02;10.77;;;;;;;14.94;41.77;102125.94;5000092;28;20117;-62
2023/02/16 07:27:53;;;;;;;17.45;9.43;;;;;;;14.98;41.37;102135.53;5034231;28;20029;-62
2023/02/16 07:30:19;;;;;;;13.48;7.90;;;;;;;15.00;41.25;102136.25;5000003;28;20061;-62
2023/02/16 07:32:45;;;;;;;24.17;9.07;;;;;;;15.05;41.58;102125.94;5034622;28;20025;-62
2023/02/16 07:35:11;;;;;;;23.63;9.65;;;;;;;15.08;41.45;102134.63;5007777;28;20106;-62
2023/02/16 07:37:36;;;;;;;22.08;9.15;;;;;;;15.13;41.58;102127.00;5034311;28;20037;-62
2023/02/16 07:40:01;;;;;;;24.02;9.93;;;;;;;15.14;40.58;102135.97;5000556;28;20041;-62
2023/02/16 07:42:31;;;;;;;23.50;10.48;;;;;;;15.09;41.89;102139.06;5000075;28;20040;-62
2023/02/16 07:44:56;;;;;;;20.38;9.55;;;;;;;15.09;42.08;102138.19;5016281;28;20490;-62
2023/02/16 07:47:22;;;;;;;20.30;10.27;;;;;;;15.08;41.41;102147.28;5000258;28;20113;-62
2023/02/16 07:49:47;;;;;;;18.27;8.63;;;;;;;15.06;41.15;102138.44;4982435;28;20464;-62
2023/02/16 07:52:12;;;;;;;20.27;9.43;;;;;;;15.07;42.38;102137.47;5033708;28;20034;-58
2023/02/16 07:54:38;;;;;;;19.67;9.27;;;;;;;15.09;41.12;102143.59;4999506;28;20053;-61
2023/02/16 07:57:03;;;;;;;22.00;9.95;;;;;;;15.12;41.68;102132.56;5015934;28;20030;-61
2023/02/16 07:59:29;;;;;;;20.88;9.95;;;;;;;15.15;41.64;102129.59;5016495;28;20052;-62
2023/02/16 08:01:54;;;;;;;22.65;9.43;;;;;;;15.22;40.99;102136.19;5032087;28;20037;-62
2023/02/16 08:04:20;;;;;;;21.83;8.90;;;;;;;15.30;41.78;102141.81;5033550;28;20501;-62
2023/02/16 08:06:47;;;;;;;23.38;9.73;;;;;;;15.35;40.99;102136.91;5033432;28;20033;-61
2023/02/16 08:09:13;;;;;;;22.70;10.10;;;;;;;15.41;40.56;102143.66;5015594;28;20489;-63
2023/02/16 08:11:38;;;;;;;22.42;9.75;;;;;;;15.46;42.01;102142.31;4999640;28;20029;-61
2023/02/16 08:14:04;;;;;;;17.80;8.95;;;;;;;15.53;41.99;102135.38;5015615;28;20409;-62
2023/02/16 08:16:29;;;;;;;20.67;9.15;;;;;;;15.60;41.35;102133.91;5033327;28;20079;-62
2023/02/16 08:18:56;;;;;;;19.00;8.73;;;;;;;15.64;42.06;102131.78;5033093;28;20045;-62
2023/02/16 08:21:23;;;;;;;18.05;8.63;;;;;;;15.66;40.89;102133.34;5015664;28;20030;-59
2023/02/16 08:23:53;;;;;;;21.08;9.40;;;;;;;15.67;40.55;102132.38;5015477;28;20033;-63
2023/02/16 08:26:20;;;;;;;25.42;10.85;;;;;;;15.69;40.47;102127.69;5016028;28;20130;-62
2023/02/16 08:28:48;;;;;;;16.17;8.93;;;;;;;15.73;41.67;102129.16;5015485;28;20049;-62
2023/02/16 08:31:17;;;;;;;23.45;9.90;;;;;;;15.74;40.58;102133.56;5015633;28;20030;-63
2023/02/16 08:33:43;;;;;;;19.55;10.07;;;;;;;15.79;41.04;102132.31;4999062;28;20030;-62
2023/02/16 08:36:22;;;;;;;21.48;9.63;;;;;;;15.79;41.48;102126.91;5015259;28;20509;-61
2023/02/16 08:38:51;;;;;;;21.27;10.02;;;;;;;15.78;41.30;102130.59;5015029;28;20509;-62
2023/02/16 08:41:18;;;;;;;20.90;10.35;;;;;;;15.83;41.99;102122.97;5033214;28;20033;-62
2023/02/16 08:43:44;;;;;;;24.27;10.18;;;;;;;15.86;42.23;102130.78;5015375;28;20461;-62
2023/02/16 08:46:10;;;;;;;23.15;10.10;;;;;;;15.88;41.85;102128.84;5015415;28;20124;-62
2023/02/16 08:48:36;;;;;;;17.60;9.32;;;;;;;15.91;41.81;102137.56;5015005;28;20443;-62
2023/02/16 08:51:02;;;;;;;21.75;9.13;;;;;;;15.95;40.83;102141.69;5015193;28;20080;-63
2023/02/16 08:53:32;;;;;;;20.58;10.05;;;;;;;16.01;41.21;102143.00;5015682;28;20022;-62
2023/02/16 08:55:58;;;;;;;18.77;8.93;;;;;;;16.09;42.25;102144.06;5015871;28;20041;-62
2023/02/16 08:58:25;;;;;;;27.30;9.93;;;;;;;16.14;41.04;102143.66;5015436;28;20121;-62
2023/02/16 09:00:50;;;;;;;20.90;8.82;;;;;;;16.19;41.29;102149.53;5016772;28;20493;-62
2023/02/16 09:03:19;;;;;;;22.83;10.80;;;;;;;16.24;41.69;102156.25;5022289;28;20029;-59
2023/02/16 09:05:46;;;;;;;20.58;9.30;;;;;;;16.29;40.85;102158.56;5040142;28;20029;-61
2023/02/16 09:08:13;;;;;;;25.13;10.10;;;;;;;16.33;41.58;102160.84;5022275;28;20089;-61
2023/02/16 09:10:38;;;;;;;21.55;10.13;;;;;;;16.36;41.78;102165.13;5022033;28;20117;-60
2023/02/16 09:13:04;;;;;;;18.67;9.45;;;;;;;16.37;41.52;102166.84;5005488;28;20103;-62
2023/02/16 09:15:31;;;;;;;22.38;9.73;;;;;;;16.43;41.48;102177.13;5021882;28;20026;-60
2023/02/16 09:17:56;;;;;;;21.55;9.88;;;;;;;16.45;41.31;102183.25;5039468;28;20029;-60
2023/02/16 09:20:22;;;;;;;21.38;9.95;;;;;;;16.51;41.19;102179.16;5039845;28;20029;-61
2023/02/16 09:22:48;;;;;;;18.45;9.40;;;;;;;16.59;41.21;102174.84;5021554;28;20401;-60
2023/02/16 09:25:14;;;;;;;21.42;9.13;;;;;;;16.67;41.66;102175.00;5005487;28;20064;-60
2023/02/16 09:27:40;;;;;;;24.52;11.43;;;;;;;16.72;41.23;102170.03;4989540;28;20091;-60
2023/02/16 09:30:06;;;;;;;16.88;9.23;;;;;;;16.71;41.87;102165.63;5021847;28;20037;-60
2023/02/16 09:32:32;;;;;;;25.27;11.05;;;;;;;16.69;41.56;102164.94;5039406;28;20378;-60
2023/02/16 09:34:57;;;;;;;17.25;9.50;;;;;;;16.66;41.13;102170.59;5041744;28;20088;-60
2023/02/16 09:37:23;;;;;;;19.40;9.45;;;;;;;16.64;42.05;102186.09;5041298;28;20029;-60
2023/02/16 09:39:48;;;;;;;23.13;9.57;;;;;;;16.62;41.00;102190.78;5041069;28;20047;-60
2023/02/16 09:42:38;;;;;;;23.23;9.73;;;;;;;16.63;41.50;102181.69;5057769;28;20495;-61
2023/02/16 09:45:08;;;;;;;16.35;8.13;;;;;;;16.61;42.03;102191.78;5041032;28;20025;-62
2023/02/16 09:47:38;;;;;;;21.25;9.82;;;;;;;16.58;42.24;102183.09;5041624;28;20025;-60
2023/02/16 09:50:24;;;;;;;21.35;9.57;;;;;;;16.58;42.09;102192.03;5040723;28;20045;-61
2023/02/16 09:53:07;;;;;;;17.83;9.20;;;;;;;16.57;41.53;102195.75;5058768;28;20075;-61
2023/02/16 09:55:42;;;;;;;19.75;10.07;;;;;;;16.55;40.94;102192.34;5057787;28;20044;-60
2023/02/16 09:58:16;;;;;;;26.15;11.13;;;;;;;16.54;41.87;102196.03;5041071;28;20409;-61
2023/02/16 10:00:53;;;;;;;19.40;9.73;;;;;;;16.55;41.17;102202.31;5057732;28;20029;-61
2023/02/16 10:03:44;;;;;;;21.13;8.57;;;;;;;16.52;41.37;102208.81;5040974;28;20547;-60
2023/02/16 10:06:12;;;;;;;23.50;9.48;;;;;;;16.53;42.44;102199.72;5024400;28;20561;-61
2023/02/16 10:08:41;;;;;;;17.45;9.25;;;;;;;16.54;42.76;102185.22;5059101;28;20032;-60
2023/02/16 10:14:13;;;;;;;20.88;8.43;;;;;;;16.53;42.54;102182.59;5039873;28;20071;-61
2023/02/16 10:16:56;;;;;;;19.98;9.10;;;;;;;16.54;42.83;102192.47;5055098;28;20184;-61
2023/02/16 10:19:26;;;;;;;19.52;9.00;;;;;;;16.55;41.62;102192.34;5055415;28;20412;-61
2023/02/16 10:21:57;;;;;;;14.82;7.97;;;;;;;16.53;42.16;102188.88;5037519;28;20505;-60
2023/02/16 10:24:25;;;;;;;17.75;8.70;;;;;;;16.54;42.13;102185.22;5020842;28;20511;-61
2023/02/16 10:27:01;;;;;;;22.73;8.90;;;;;;;16.58;42.70;102181.22;5037445;28;20032;-61
2023/02/16 10:29:26;;;;;;;18.55;8.27;;;;;;;16.59;41.44;102182.94;5054656;28;20027;-60
2023/02/16 10:31:55;;;;;;;18.95;8.50;;;;;;;16.61;41.72;102170.13;5054017;28;20029;-60
2023/02/16 10:34:41;;;;;;;17.33;8.95;;;;;;;16.64;41.61;102155.47;5055203;28;20036;-62
2023/02/16 10:37:34;;;;;;;17.75;8.45;;;;;;;16.67;42.29;102157.91;5054956;28;20037;-60
2023/02/16 10:40:11;;;;;;;18.95;9.25;;;;;;;16.74;41.22;102162.66;5020866;28;20036;-60
2023/02/16 10:43:11;;;;;;;17.13;7.93;;;;;;;16.74;41.83;102165.38;5055069;28;20028;-60
2023/02/16 10:45:52;;;;;;;16.45;8.85;;;;;;;16.75;41.24;102177.88;5009945;28;20530;-60
2023/02/16 10:48:22;;;;;;;18.65;8.95;;;;;;;16.78;41.99;102176.75;5036897;28;20156;-60
2023/02/16 10:50:57;;;;;;;19.58;9.13;;;;;;;16.81;42.40;102171.94;5020777;28;20029;-60
2023/02/16 10:53:58;;;;;;;25.50;9.90;;;;;;;16.82;42.38;102176.38;5055253;28;20400;-60
2023/02/16 10:56:26;;;;;;;20.05;9.23;;;;;;;16.83;42.04;102169.94;5032264;28;20040;-60
2023/02/16 10:58:52;;;;;;;16.73;8.82;;;;;;;16.87;42.60;102165.97;5054572;28;20124;-61
2023/02/16 11:01:41;;;;;;;16.50;8.15;;;;;;;16.92;41.16;102162.84;5020181;28;20052;-60
2023/02/16 11:04:06;;;;;;;20.40;9.60;;;;;;;16.97;42.38;102165.16;5020353;28;20033;-59
2023/02/16 11:06:33;;;;;;;20.02;8.88;;;;;;;17.00;42.51;102154.06;5053348;28;20036;-61
2023/02/16 11:09:00;;;;;;;16.98;8.90;;;;;;;17.06;41.55;102165.19;5053096;28;20021;-60
2023/02/16 11:11:34;;;;;;;16.85;9.07;;;;;;;17.09;41.96;102167.59;5054864;28;20032;-60
2023/02/16 11:14:03;;;;;;;19.65;9.07;;;;;;;17.13;41.84;102170.91;5019837;28;20032;-61
2023/02/16 11:16:29;;;;;;;18.95;8.50;;;;;;;17.15;41.54;102174.31;5020143;28;20035;-60
2023/02/16 11:19:00;;;;;;;20.95;9.45;;;;;;;17.15;41.37;102168.91;5054195;28;20103;-60
2023/02/16 11:21:49;;;;;;;18.10;9.20;;;;;;;17.20;42.09;102172.03;5020116;28;20037;-60
2023/02/16 11:24:26;;;;;;;20.58;8.95;;;;;;;17.22;41.71;102167.38;5019643;28;20036;-60
2023/02/16 11:27:25;;;;;;;23.75;9.52;;;;;;;17.25;41.75;102167.09;5054475;28;20024;-60
2023/02/16 11:29:50;;;;;;;18.40;9.15;;;;;;;17.25;41.83;102158.97;5036247;28;20025;-60
2023/02/16 11:32:17;;;;;;;21.10;10.50;;;;;;;17.27;42.34;102159.69;5053261;28;20028;-61
2023/02/16 11:34:50;;;;;;;20.77;9.13;;;;;;;17.26;41.46;102163.38;5019718;28;20041;-60
2023/02/16 11:37:30;;;;;;;19.13;9.60;;;;;;;17.24;41.70;102159.94;5019682;28;20464;-61
2023/02/16 11:39:59;;;;;;;19.63;10.23;;;;;;;17.27;42.21;102146.13;5019311;28;20497;-60
2023/02/16 11:42:31;;;;;;;19.33;9.57;;;;;;;17.29;43.04;102149.56;5052532;28;20064;-60
2023/02/16 11:44:58;;;;;;;21.00;11.35;;;;;;;17.33;42.41;102151.00;5019590;28;20021;-61
2023/02/16 11:47:30;;;;;;;23.67;10.40;;;;;;;17.40;42.08;102150.28;5054372;28;20027;-60
2023/02/16 11:50:18;;;;;;;20.23;10.13;;;;;;;17.51;42.53;102148.44;5036020;28;20475;-60
2023/02/16 11:52:51;;;;;;;20.55;9.20;;;;;;;17.54;42.01;102157.16;5036184;28;20025;-60
2023/02/16 11:55:26;;;;;;;24.35;10.38;;;;;;;17.62;42.51;102154.59;5021079;28;20029;-60
2023/02/16 11:57:53;;;;;;;24.88;10.63;;;;;;;17.66;42.58;102157.88;5036567;28;20386;-60
2023/02/16 12:00:23;;;;;;;23.60;10.52;;;;;;;17.68;42.13;102140.47;5036989;28;20035;-60
2023/02/16 12:03:14;;;;;;;19.67;10.20;;;;;;;17.79;42.66;102142.19;5035646;28;20023;-60
2023/02/16 12:06:19;;;;;;;17.67;9.80;;;;;;;17.83;42.81;102143.63;5053967;28;20029;-60